Notice: Undefined index: language in /storage/ssd5/933/2892933/public_html/vam/index.php on line 25
JetGo Aerolínea Virtual

www.000webhost.com
 METAR AND TAF INFORMATION
METAR FOR SKVP
ADDS - METARS form results

(1348 UTC 19 August 2019)
Data provider http://aviationweather.gov/metar/data/
 
METAR text: SKVP 191300Z 05006KT 9999 FEW020 28/24 A2987
Conditions at: SKVP (VALLEDUPAR/ALFON, CO) observed 1300 UTC 19 August 2019
Temperature: 28.0°C (82°F)
Dewpoint: 24.0°C (75°F) [RH = 79%]
Pressure (altimeter): 29.87 inches Hg (1011.6 mb)
Winds: from the NE (50 degrees) at 7 MPH (6 knots; 3.1 m/s)
Visibility: 6 or more miles (10+ km)
Ceiling: at least 12,000 feet AGL
Clouds: few clouds at 2000 feet AGL
Weather: no significant weather observed at this time

 AIRPORT MAP

 RUNWAY INFORMATION
Runway 02 Runway length 6890 ft Runway width 98 ft
Runway elevation 449 ft Runway displaced threshold 0 ft Runway heading 10
Runway 20 Runway length 6890 ft Runway width 98 ft
Runway elevation 483 ft Runway displaced threshold 0 ft Runway heading 190

 AIRPORT FREQUENCIES
Type RDO Name VALLEDUPAR Frequency 348.8 MHZ
Type TWR Name TWR Frequency 118 MHZ

 AIRPORT NEAR NAVIGATION AIDS
Type NDB Name Valledupar Frequency 325 KHZ
Type VOR-DME Name Valledupar Frequency 114600 KHZ



Powered by VAM for JetGo Virtual Airlines